首页
METAR-TAF:

METAR-TAF

机场 :

德梅因, 艾奥瓦州, 美国

纬度: 41-32-16N, 经度: 093-39-58W, 海拔: 291米

当前天气观测

该预报发布于18分钟前的07:54 UTC
风速10节,风向南转南东
温度 4°C
湿度 75%
气压 1015 hPa
能見度: 16.1公里
阴天层高于14000英尺

METAR: KDSM 170754Z 15010KT 10SM OVC140 04/00 A2998 RMK AO2 SLP156 T00440000

时间: 02:12 (08:12 UTC)

预报

该预报发布于2小时和41分钟前的05:31 UTC
预报有效从17日的 06点(UTC)到 18日的 06点(UTC)
风速9节,风向东南
能見度: 10公里
多云层高于14000英尺
阴天层高于25000英尺
从 17日的 0900点(UTC)
风速6节,风向南转西南
能見度: 10公里
阴天层高于10000英尺
附近有阵雨
从 17日的 1300点(UTC)
风速9节,风向西转西北,有时为15节阵风
能見度: 10公里
阴天层高于2200英尺
从 17日的 1800点(UTC)
风速10节,风向北转西北
能見度: 10公里
多云层高于2500英尺
从 18日的 0300点(UTC)
风速4节,风向西转西北
能見度: 10公里
多云层高于3500英尺

TAF: KDSM 170531Z 1706/1806 14009KT P6SM BKN140 OVC250 FM170900 20006KT P6SM VCSH OVC100 FM171300 30009G15KT P6SM OVC022 FM171800 33010KT P6SM BKN025 FM180300 30004KT P6SM BKN035

超过4000个机场的气象观测和天气预报(METAR&TAF报告)。

可查询的气象台以黄色和红色小点在地图上表示。

将鼠标移到小点上方,可查看气象台名称。

然后点击查看天气观测和预报。

如需切换地图:点击带黑十字的绿色按钮放大地图;点击带横线的绿色按钮缩小地图;或者点击绿色箭头查看邻近地区的地图。


METAR-TAF: